Time;durP1;ratioP1;P1;durP2;ratioP2;P2;SDS_P1;SDS_P2;PMS_P1;PMS_P2;Temp;Humidity;BMP_temperature;BMP_pressure;BME280_temperature;BME280_humidity;BME280_pressure;Samples;Min_cycle;Max_cycle;Signal;HPM_P1;HPM_P2
2021/07/20 00:01:59;;;;;;;16.07;12.90;;;;;;;20.07;100.00;100020.09;1721882;81;21050;-70
2021/07/20 00:04:26;;;;;;;15.37;13.67;;;;;;;20.02;100.00;100014.89;1723113;81;21050;-70
2021/07/20 00:06:53;;;;;;;16.20;13.70;;;;;;;19.99;100.00;100021.77;1724108;81;21216;-70
2021/07/20 00:09:19;;;;;;;16.73;14.60;;;;;;;19.95;100.00;100018.72;1717914;82;21116;-71
2021/07/20 00:11:46;;;;;;;15.57;13.97;;;;;;;19.90;100.00;100016.41;1722374;81;21053;-70
2021/07/20 00:14:12;;;;;;;17.77;13.93;;;;;;;19.87;100.00;100012.22;1723349;82;21066;-71
2021/07/20 00:16:39;;;;;;;20.80;15.30;;;;;;;19.82;100.00;100005.10;1723316;82;21659;-70
2021/07/20 00:19:05;;;;;;;18.77;14.50;;;;;;;19.79;100.00;100003.05;1715881;81;21053;-70
2021/07/20 00:21:32;;;;;;;17.37;14.33;;;;;;;19.76;100.00;99992.87;1707364;81;21108;-70
2021/07/20 00:23:59;;;;;;;17.90;14.10;;;;;;;19.75;100.00;99999.43;1736940;81;21048;-70
2021/07/20 00:26:25;;;;;;;17.90;14.43;;;;;;;19.74;100.00;100002.45;1729034;81;21530;-70
2021/07/20 00:28:52;;;;;;;16.63;13.80;;;;;;;19.70;100.00;100009.10;1727977;82;21061;-70
2021/07/20 00:31:19;;;;;;;17.47;14.87;;;;;;;19.69;100.00;100014.30;1726055;82;21097;-70
2021/07/20 00:33:46;;;;;;;17.23;14.10;;;;;;;19.68;100.00;100018.14;1723437;82;21511;-71
2021/07/20 00:36:12;;;;;;;17.20;15.07;;;;;;;19.71;100.00;100013.95;1729813;82;21101;-71
2021/07/20 00:38:39;;;;;;;17.23;14.00;;;;;;;19.72;100.00;100012.28;1709368;82;21543;-70
2021/07/20 00:41:05;;;;;;;17.13;13.97;;;;;;;19.74;100.00;100010.02;1708123;82;21663;-70
2021/07/20 00:43:33;;;;;;;18.10;14.83;;;;;;;19.75;100.00;100010.27;1729580;81;20997;-70
2021/07/20 00:46:00;;;;;;;19.30;14.87;;;;;;;19.77;100.00;100009.36;1719183;82;21553;-70
2021/07/20 00:48:27;;;;;;;18.83;15.73;;;;;;;19.78;100.00;100005.55;1714378;81;20955;-71
2021/07/20 00:50:54;;;;;;;19.50;15.80;;;;;;;19.79;100.00;100006.33;1722958;83;21124;-70
2021/07/20 00:53:21;;;;;;;18.23;15.73;;;;;;;19.80;100.00;100010.05;1697063;83;21483;-71
2021/07/20 00:55:50;;;;;;;17.67;14.77;;;;;;;19.82;100.00;100002.95;1666044;85;21143;-71
2021/07/20 00:58:18;;;;;;;24.97;16.20;;;;;;;19.84;100.00;100002.86;1715786;82;21496;-71
2021/07/20 01:00:48;;;;;;;18.87;15.20;;;;;;;19.85;100.00;100008.50;1723177;82;20987;-70
2021/07/20 01:03:12;;;;;;;18.63;14.37;;;;;;;19.86;100.00;100007.37;1723436;81;21011;-71
2021/07/20 01:05:39;;;;;;;18.00;15.07;;;;;;;19.85;100.00;100003.66;1712213;81;21069;-71
2021/07/20 01:08:08;;;;;;;19.93;15.10;;;;;;;19.84;100.00;99996.62;1717587;83;21050;-71
2021/07/20 01:10:37;;;;;;;17.43;14.33;;;;;;;19.84;100.00;100000.69;1730176;81;21519;-71
2021/07/20 01:13:06;;;;;;;16.60;13.73;;;;;;;19.79;100.00;99993.57;1722286;81;21003;-71
2021/07/20 01:15:34;;;;;;;17.83;13.90;;;;;;;19.76;100.00;99993.45;1740297;81;20998;-70
2021/07/20 01:18:03;;;;;;;16.83;13.37;;;;;;;19.74;100.00;99998.39;1698647;82;21578;-70
2021/07/20 01:20:31;;;;;;;15.47;13.63;;;;;;;19.72;100.00;99997.38;1724148;82;21009;-70
2021/07/20 01:23:17;;;;;;;17.73;13.60;;;;;;;19.71;100.00;99999.05;1723545;82;21267;-70
2021/07/20 01:25:43;;;;;;;18.23;14.47;;;;;;;19.67;100.00;100002.42;1719013;81;21096;-70
2021/07/20 01:28:17;;;;;;;16.00;13.80;;;;;;;19.64;100.00;100007.71;1724822;83;21462;-70
2021/07/20 01:30:43;;;;;;;18.60;13.57;;;;;;;19.61;100.00;100013.76;1720540;82;21118;-70
2021/07/20 01:33:12;;;;;;;16.50;13.43;;;;;;;19.58;100.00;100016.59;1710808;81;21273;-70
2021/07/20 01:35:39;;;;;;;18.57;13.57;;;;;;;19.56;99.97;100018.03;1718912;82;21561;-69
2021/07/20 01:38:08;;;;;;;16.60;13.87;;;;;;;19.56;99.96;100013.97;1723823;82;21012;-70
2021/07/20 01:40:37;;;;;;;17.47;14.10;;;;;;;19.55;99.90;100009.69;1720534;82;21054;-69
2021/07/20 01:43:08;;;;;;;19.00;13.70;;;;;;;19.54;99.93;100008.08;1713333;81;21034;-70
2021/07/20 01:45:35;;;;;;;18.03;14.60;;;;;;;19.53;100.00;100013.28;1720635;81;21075;-71
2021/07/20 01:48:04;;;;;;;18.20;14.70;;;;;;;19.51;100.00;100010.09;1701365;83;21148;-70
2021/07/20 01:50:32;;;;;;;17.60;14.47;;;;;;;19.52;100.00;100008.99;1705003;81;21045;-70
2021/07/20 01:52:59;;;;;;;20.40;15.30;;;;;;;19.51;100.00;100006.03;1693642;81;21021;-69
2021/07/20 01:55:27;;;;;;;20.50;15.90;;;;;;;19.53;100.00;100005.16;1715877;82;21601;-70
2021/07/20 01:57:55;;;;;;;20.13;17.53;;;;;;;19.55;100.00;100002.92;1698723;81;21093;-71
2021/07/20 02:00:32;;;;;;;20.60;16.43;;;;;;;19.56;100.00;100002.57;1722264;81;21496;-70
2021/07/20 02:08:31;;;;;;;19.17;17.07;;;;;;;19.64;100.00;100014.48;1725784;81;21007;-70
2021/07/20 02:11:15;;;;;;;19.23;16.57;;;;;;;19.66;100.00;100010.89;1693150;82;21062;-70
2021/07/20 02:13:57;;;;;;;23.10;18.35;;;;;;;19.68;100.00;100008.66;1716755;81;21482;-70
2021/07/20 02:16:35;;;;;;;20.30;16.97;;;;;;;19.70;100.00;100005.04;1724727;81;21007;-70
2021/07/20 02:19:31;;;;;;;21.30;17.20;;;;;;;19.72;100.00;100011.50;1705768;82;21617;-70
2021/07/20 02:22:04;;;;;;;24.03;19.50;;;;;;;19.74;100.00;100006.52;1698880;82;21049;-70
2021/07/20 02:24:36;;;;;;;26.42;20.85;;;;;;;19.75;100.00;99994.02;1725424;81;21081;-70
2021/07/20 02:27:06;;;;;;;25.50;21.70;;;;;;;19.76;100.00;99990.17;1721548;82;21818;-70
2021/07/20 02:29:35;;;;;;;26.43;21.33;;;;;;;19.77;100.00;99988.24;1720061;82;21149;-69
2021/07/20 02:32:05;;;;;;;25.27;21.97;;;;;;;19.80;100.00;99993.00;1723557;82;21184;-69
2021/07/20 02:34:34;;;;;;;26.10;21.17;;;;;;;19.83;100.00;100001.26;1721664;81;21048;-70
2021/07/20 02:37:02;;;;;;;27.03;21.83;;;;;;;19.86;100.00;99999.24;1716458;81;21562;-70
2021/07/20 02:39:31;;;;;;;23.43;19.37;;;;;;;19.90;100.00;100000.72;1715842;81;21099;-69
2021/07/20 02:41:58;;;;;;;20.70;17.63;;;;;;;19.94;100.00;99998.13;1721657;82;21092;-70
2021/07/20 02:44:26;;;;;;;20.00;17.63;;;;;;;19.94;100.00;99992.71;1722560;81;21556;-70
2021/07/20 02:46:52;;;;;;;20.83;17.47;;;;;;;19.93;100.00;99992.49;1728257;81;21041;-70
2021/07/20 02:49:19;;;;;;;22.37;17.37;;;;;;;19.90;100.00;99996.66;1709428;81;21137;-70
2021/07/20 02:51:48;;;;;;;20.57;17.37;;;;;;;19.87;100.00;99996.78;1691194;84;21167;-69
2021/07/20 02:54:18;;;;;;;20.83;17.47;;;;;;;19.87;100.00;99990.55;1715259;81;21751;-70
2021/07/20 02:56:47;;;;;;;18.33;16.37;;;;;;;19.88;100.00;99994.86;1729649;81;21081;-70
2021/07/20 02:59:18;;;;;;;18.43;16.60;;;;;;;19.87;100.00;99994.07;1692924;83;21006;-70
2021/07/20 03:01:47;;;;;;;19.57;16.63;;;;;;;19.88;100.00;99992.94;1715990;82;21054;-70
2021/07/20 03:04:15;;;;;;;19.63;17.53;;;;;;;19.91;100.00;99999.05;1722087;81;21120;-70
2021/07/20 03:06:50;;;;;;;20.37;18.17;;;;;;;19.95;100.00;99999.73;1723967;81;21166;-69
2021/07/20 03:09:19;;;;;;;21.50;18.40;;;;;;;19.98;100.00;100007.99;1726274;82;20982;-69
2021/07/20 03:11:49;;;;;;;21.13;18.47;;;;;;;20.02;100.00;100010.83;1725321;81;21038;-70
2021/07/20 03:14:20;;;;;;;20.70;18.60;;;;;;;20.05;100.00;100019.09;1730282;81;21048;-70
2021/07/20 03:16:51;;;;;;;22.00;19.67;;;;;;;20.09;100.00;100019.20;1731166;81;21092;-70
2021/07/20 03:19:20;;;;;;;21.50;19.20;;;;;;;20.14;100.00;100023.08;1702805;81;21057;-70
2021/07/20 03:21:48;;;;;;;23.37;20.00;;;;;;;20.21;100.00;100025.25;1728851;81;21037;-70
2021/07/20 03:24:15;;;;;;;19.97;17.80;;;;;;;20.27;100.00;100030.13;1722147;83;21054;-70
2021/07/20 03:26:44;;;;;;;22.20;19.80;;;;;;;20.33;100.00;100031.47;1701887;83;21111;-70
2021/07/20 03:29:11;;;;;;;21.00;18.83;;;;;;;20.39;100.00;100025.28;1703302;84;21121;-70
2021/07/20 03:31:40;;;;;;;19.67;17.57;;;;;;;20.46;100.00;100028.80;1701080;83;21600;-70
2021/07/20 03:34:06;;;;;;;22.00;19.03;;;;;;;20.52;100.00;100020.13;1700610;84;21300;-70
2021/07/20 03:36:36;;;;;;;24.93;20.43;;;;;;;20.61;100.00;100021.41;1698579;83;21091;-71
2021/07/20 03:39:04;;;;;;;25.90;21.77;;;;;;;20.68;100.00;100022.20;1695751;83;21136;-71
2021/07/20 03:41:33;;;;;;;22.90;20.43;;;;;;;20.76;100.00;100022.11;1708169;81;22139;-70
2021/07/20 03:44:00;;;;;;;27.63;22.27;;;;;;;20.84;100.00;100024.48;1720317;81;20951;-70
2021/07/20 03:46:27;;;;;;;23.73;21.17;;;;;;;20.94;100.00;100031.38;1697132;81;21137;-69
2021/07/20 03:48:54;;;;;;;25.10;21.43;;;;;;;21.00;100.00;100021.31;1727073;82;21058;-70
2021/07/20 03:51:24;;;;;;;27.00;20.47;;;;;;;21.10;100.00;100017.92;1735988;82;21551;-70
2021/07/20 03:53:50;;;;;;;23.40;20.97;;;;;;;21.20;100.00;100026.39;1687718;81;21815;-71
2021/07/20 03:56:18;;;;;;;22.50;19.70;;;;;;;21.29;100.00;100028.42;1689048;82;21675;-70
2021/07/20 03:58:47;;;;;;;22.27;19.93;;;;;;;21.39;100.00;100029.09;1693967;82;21107;-71
2021/07/20 04:01:15;;;;;;;20.37;18.30;;;;;;;21.49;100.00;100022.64;1679065;82;21007;-70
2021/07/20 04:03:41;;;;;;;22.57;19.70;;;;;;;21.59;100.00;100029.53;1713949;81;21007;-69
2021/07/20 04:06:11;;;;;;;23.03;18.43;;;;;;;21.70;100.00;100024.39;1715164;81;21327;-69
2021/07/20 04:08:42;;;;;;;21.37;18.87;;;;;;;21.79;100.00;100025.05;1719879;82;21029;-70
2021/07/20 04:11:13;;;;;;;20.50;18.43;;;;;;;21.89;100.00;100029.20;1723076;82;20986;-70
2021/07/20 04:13:42;;;;;;;21.15;18.70;;;;;;;21.95;100.00;100033.27;1710882;81;21589;-70
2021/07/20 04:16:15;;;;;;;20.33;17.90;;;;;;;22.05;100.00;100034.70;1724543;82;21069;-70
2021/07/20 04:18:41;;;;;;;19.93;17.37;;;;;;;22.14;100.00;100032.02;1667630;84;21126;-71
2021/07/20 04:21:10;;;;;;;20.73;17.50;;;;;;;22.24;100.00;100035.66;1707024;83;21616;-70
2021/07/20 04:23:37;;;;;;;19.53;17.20;;;;;;;22.35;100.00;100039.22;1711681;82;21032;-70
2021/07/20 04:26:08;;;;;;;19.00;16.10;;;;;;;22.41;99.58;100039.19;1729311;81;21437;-71
2021/07/20 04:28:36;;;;;;;17.73;15.80;;;;;;;22.52;98.78;100047.05;1721812;81;21157;-70
2021/07/20 04:31:05;;;;;;;15.93;14.23;;;;;;;22.62;97.58;100040.30;1729324;83;21399;-70
2021/07/20 04:33:33;;;;;;;18.37;15.13;;;;;;;22.70;95.90;100037.41;1696431;83;21493;-70
2021/07/20 04:36:03;;;;;;;15.50;13.80;;;;;;;22.75;94.24;100041.80;1735136;81;21041;-71
2021/07/20 04:38:36;;;;;;;15.23;13.57;;;;;;;22.79;93.05;100035.86;1663261;82;21027;-72
2021/07/20 04:41:03;;;;;;;15.53;13.77;;;;;;;22.82;92.18;100035.73;1716103;81;21005;-71
2021/07/20 04:43:30;;;;;;;14.97;13.20;;;;;;;22.81;91.55;100036.88;1716953;81;21469;-70
2021/07/20 04:46:00;;;;;;;14.37;12.87;;;;;;;22.81;91.23;100039.03;1727162;81;21057;-70
2021/07/20 04:48:29;;;;;;;14.90;13.40;;;;;;;22.83;90.84;100043.53;1714308;81;21023;-70
2021/07/20 04:50:58;;;;;;;14.93;13.43;;;;;;;22.84;90.33;100036.97;1713218;82;21571;-70
2021/07/20 04:53:24;;;;;;;16.33;13.40;;;;;;;22.84;90.04;100041.63;1724763;82;21164;-71
2021/07/20 04:55:52;;;;;;;15.03;13.47;;;;;;;22.87;89.68;100037.63;1718437;82;21916;-70
2021/07/20 04:58:19;;;;;;;14.33;12.93;;;;;;;22.94;89.26;100043.84;1717892;81;21510;-71
2021/07/20 05:00:52;;;;;;;16.93;14.13;;;;;;;23.00;88.82;100043.80;1728891;81;21525;-71
2021/07/20 05:03:23;;;;;;;15.10;13.33;;;;;;;23.11;88.61;100046.19;1728194;81;21075;-71
2021/07/20 05:05:52;;;;;;;19.37;15.33;;;;;;;23.22;88.28;100048.37;1726049;81;21058;-71
2021/07/20 05:08:20;;;;;;;18.30;14.73;;;;;;;23.33;87.64;100048.02;1725737;81;21168;-71
2021/07/20 05:10:52;;;;;;;21.50;15.90;;;;;;;23.41;86.91;100051.14;1718644;81;20959;-71
2021/07/20 05:13:22;;;;;;;21.30;15.17;;;;;;;23.48;86.27;100056.74;1717540;82;21027;-71
2021/07/20 05:15:54;;;;;;;18.27;15.50;;;;;;;23.55;86.11;100048.72;1730115;81;20974;-71
2021/07/20 05:18:22;;;;;;;16.23;14.53;;;;;;;23.64;85.53;100056.12;1696039;83;21194;-72
2021/07/20 05:20:53;;;;;;;18.10;14.87;;;;;;;23.73;85.05;100046.99;1720849;81;21141;-71
2021/07/20 05:23:20;;;;;;;22.07;15.90;;;;;;;23.80;84.58;100049.28;1720028;82;21018;-70
2021/07/20 05:25:56;;;;;;;20.47;14.87;;;;;;;23.88;83.66;100047.48;1725002;81;21560;-72
2021/07/20 05:28:26;;;;;;;18.80;14.47;;;;;;;23.95;83.16;100051.70;1731834;82;21062;-72
2021/07/20 05:30:57;;;;;;;18.37;14.70;;;;;;;24.02;83.04;100041.51;1700950;83;21177;-71
2021/07/20 05:33:24;;;;;;;;;;;;;;;24.10;82.58;100038.57;1717157;81;21180;-70
2021/07/20 05:35:59;;;;;;;20.97;15.77;;;;;;;24.17;82.44;100035.77;1715971;81;20175;-71
2021/07/20 05:38:27;;;;;;;18.63;15.57;;;;;;;24.18;81.90;100034.03;1726643;81;21049;-69
2021/07/20 05:40:58;;;;;;;19.93;15.90;;;;;;;24.15;81.56;100031.23;1714991;82;21084;-71
2021/07/20 05:43:27;;;;;;;20.23;15.77;;;;;;;24.18;81.88;100042.79;1722873;82;21026;-71
2021/07/20 05:45:57;;;;;;;19.03;16.50;;;;;;;24.28;81.94;100040.84;1728850;82;21031;-71
2021/07/20 05:48:24;;;;;;;19.70;16.33;;;;;;;24.40;81.64;100046.71;1714100;81;21102;-71
2021/07/20 05:50:53;;;;;;;20.13;15.07;;;;;;;24.51;81.42;100051.25;1723790;82;21147;-72
2021/07/20 05:53:30;;;;;;;18.97;16.07;;;;;;;24.63;81.09;100053.58;1706507;82;21695;-71
2021/07/20 05:56:02;;;;;;;17.83;14.77;;;;;;;24.71;80.50;100056.08;1726238;81;21559;-71
2021/07/20 05:58:29;;;;;;;16.50;13.70;;;;;;;24.79;79.79;100053.66;1719052;81;21108;-71
2021/07/20 06:01:03;;;;;;;17.67;13.37;;;;;;;24.88;79.15;100052.64;1719612;81;21471;-71
2021/07/20 06:03:32;;;;;;;14.77;12.67;;;;;;;24.95;78.32;100043.19;1671880;84;20978;-71
2021/07/20 06:06:02;;;;;;;14.93;13.33;;;;;;;25.04;77.27;100040.97;1699941;82;20979;-71
2021/07/20 06:08:30;;;;;;;13.77;12.47;;;;;;;25.14;77.00;100040.95;1715306;81;21712;-72
2021/07/20 06:11:03;;;;;;;14.30;11.83;;;;;;;25.23;76.34;100029.96;1721891;82;21139;-72
2021/07/20 06:13:36;;;;;;;13.70;12.30;;;;;;;25.33;76.06;100031.27;1735206;82;21038;-71
2021/07/20 06:16:07;;;;;;;14.30;12.80;;;;;;;25.41;75.13;100023.98;1724760;82;21149;-71
2021/07/20 06:18:37;;;;;;;;;;;;;;;25.47;74.75;100019.17;1732178;81;21009;-72
2021/07/20 06:21:07;;;;;;;12.83;11.23;;;;;;;25.56;74.04;100024.35;1720721;82;20188;-71
2021/07/20 06:23:44;;;;;;;11.77;10.57;;;;;;;25.63;74.39;100016.81;1706006;81;22001;-72
2021/07/20 06:26:21;;;;;;;13.63;12.23;;;;;;;25.70;73.93;100014.97;1706300;82;21051;-71
2021/07/20 06:28:51;;;;;;;12.00;10.67;;;;;;;25.82;73.04;100022.16;1723602;81;21050;-71
2021/07/20 06:31:18;;;;;;;11.73;10.53;;;;;;;25.91;71.93;100023.25;1717671;82;21121;-71
2021/07/20 06:33:46;;;;;;;12.50;11.20;;;;;;;25.99;71.68;100025.47;1722420;81;21148;-72
2021/07/20 06:36:16;;;;;;;12.47;11.13;;;;;;;26.06;70.83;100020.07;1731351;81;21169;-72
2021/07/20 06:38:43;;;;;;;13.17;11.00;;;;;;;26.17;70.42;100020.99;1746198;81;21097;-71
2021/07/20 06:41:10;;;;;;;14.40;11.43;;;;;;;26.26;69.63;100018.74;1697736;82;21025;-71
2021/07/20 06:43:38;;;;;;;12.07;10.93;;;;;;;26.35;69.61;100019.20;1725120;81;20982;-71
2021/07/20 06:46:06;;;;;;;11.63;10.43;;;;;;;26.42;69.35;100017.11;1725073;81;21054;-72
2021/07/20 06:48:38;;;;;;;12.07;10.73;;;;;;;26.41;68.36;100023.17;1722427;82;21821;-72
2021/07/20 06:51:04;;;;;;;14.10;11.33;;;;;;;26.36;68.29;100026.27;1730483;81;21068;-71
2021/07/20 06:53:34;;;;;;;12.37;10.83;;;;;;;26.41;68.84;100029.23;1714427;81;21007;-72
2021/07/20 06:56:04;;;;;;;12.30;10.90;;;;;;;26.49;68.68;100030.92;1730075;82;21069;-71
2021/07/20 06:58:32;;;;;;;12.17;11.07;;;;;;;26.60;67.66;100033.16;1711547;82;21046;-71
2021/07/20 07:01:01;;;;;;;11.40;10.23;;;;;;;26.74;66.88;100029.74;1696840;82;22147;-72
2021/07/20 07:03:41;;;;;;;13.30;10.93;;;;;;;26.82;66.47;100026.50;1722043;81;21034;-71
2021/07/20 07:06:07;;;;;;;15.63;10.93;;;;;;;26.85;66.41;100038.04;1706112;82;21086;-71
2021/07/20 07:08:35;;;;;;;12.13;10.43;;;;;;;26.82;65.95;100045.67;1701786;81;21663;-71
2021/07/20 07:11:02;;;;;;;12.57;11.33;;;;;;;26.77;65.77;100044.64;1703859;82;21644;-71
2021/07/20 07:13:31;;;;;;;15.13;11.00;;;;;;;26.69;66.02;100044.37;1725591;82;21516;-71
2021/07/20 07:15:59;;;;;;;12.50;11.30;;;;;;;26.67;65.87;100040.65;1672059;83;21591;-71
2021/07/20 07:18:26;;;;;;;12.07;10.77;;;;;;;26.72;65.60;100042.24;1738561;81;21556;-72
2021/07/20 07:20:54;;;;;;;11.97;10.77;;;;;;;26.74;65.16;100042.08;1747654;81;21093;-72
2021/07/20 07:23:21;;;;;;;13.83;11.20;;;;;;;26.80;65.50;100050.16;1731785;81;21531;-72
2021/07/20 07:25:50;;;;;;;12.07;10.87;;;;;;;26.93;65.04;100039.69;1723005;83;21926;-72
2021/07/20 07:28:18;;;;;;;12.40;11.10;;;;;;;27.09;65.02;100032.55;1725774;81;21054;-72
2021/07/20 07:30:48;;;;;;;12.93;10.70;;;;;;;27.25;63.70;100028.19;1717233;81;21108;-73
2021/07/20 07:33:15;;;;;;;12.50;11.20;;;;;;;27.42;63.40;100034.34;1721708;81;21046;-71
2021/07/20 07:35:41;;;;;;;12.00;10.20;;;;;;;27.55;62.85;100029.31;1736904;81;21089;-72
2021/07/20 07:38:08;;;;;;;11.47;10.40;;;;;;;27.59;61.61;100030.89;1706445;82;21569;-73
2021/07/20 07:40:35;;;;;;;12.37;10.03;;;;;;;27.50;61.50;100028.30;1722114;83;21045;-71
2021/07/20 07:43:03;;;;;;;11.20;10.20;;;;;;;27.44;61.42;100027.88;1729140;81;21679;-72
2021/07/20 07:45:31;;;;;;;12.53;11.33;;;;;;;27.41;61.55;100022.38;1722652;81;21090;-70
2021/07/20 07:47:58;;;;;;;12.53;11.33;;;;;;;27.46;61.57;100018.69;1729439;83;21385;-72
2021/07/20 07:50:25;;;;;;;16.33;11.30;;;;;;;27.59;61.38;100020.52;1730214;81;22170;-71
2021/07/20 07:52:54;;;;;;;12.53;11.23;;;;;;;27.71;60.72;100018.80;1731034;81;21022;-72
2021/07/20 07:55:22;;;;;;;12.60;11.30;;;;;;;27.73;59.89;100012.92;1696457;83;21026;-72
2021/07/20 07:57:49;;;;;;;12.47;11.27;;;;;;;27.60;60.15;100022.86;1724221;81;21054;-73
2021/07/20 08:00:16;;;;;;;12.70;11.23;;;;;;;27.59;60.46;100020.52;1720539;83;21104;-71
2021/07/20 08:02:49;;;;;;;12.20;11.10;;;;;;;27.67;59.80;100016.61;1722493;82;21805;-72
2021/07/20 08:05:16;;;;;;;12.53;11.33;;;;;;;27.65;59.85;100012.11;1720041;81;21041;-72
2021/07/20 08:07:43;;;;;;;12.87;11.60;;;;;;;27.67;60.10;100016.61;1723967;81;21076;-72
2021/07/20 08:10:11;;;;;;;12.30;10.60;;;;;;;27.79;59.84;100019.64;1724776;82;21061;-73
2021/07/20 08:12:39;;;;;;;13.43;11.13;;;;;;;27.90;59.06;100024.56;1723265;82;21121;-72
2021/07/20 08:15:09;;;;;;;11.43;9.78;;;;;;;28.11;58.87;100030.72;1719174;82;21080;-73
2021/07/20 08:17:36;;;;;;;12.30;10.20;;;;;;;28.40;57.43;100024.72;1716214;82;21050;-73
2021/07/20 08:20:04;;;;;;;11.08;9.98;;;;;;;28.63;56.55;100027.09;1701166;82;21070;-79
2021/07/20 08:22:30;;;;;;;11.60;10.15;;;;;;;28.75;54.99;100026.67;1722666;81;21090;-78
2021/07/20 08:25:08;;;;;;;11.35;10.10;;;;;;;28.84;55.50;100025.50;1718946;82;21433;-81
2021/07/20 08:27:48;;;;;;;12.98;9.53;;;;;;;28.99;55.37;100023.73;1721198;82;21141;-79
2021/07/20 08:30:15;;;;;;;11.48;9.35;;;;;;;29.08;54.45;100017.83;1718274;81;21113;-77
2021/07/20 08:32:57;;;;;;;11.78;9.60;;;;;;;29.12;55.57;100015.88;1718219;82;21051;-77
2021/07/20 08:35:29;;;;;;;11.75;9.93;;;;;;;29.16;54.08;100020.77;1701858;82;21072;-78
2021/07/20 08:38:06;;;;;;;10.88;9.45;;;;;;;29.18;54.24;100016.23;1717473;82;21505;-77
2021/07/20 08:40:54;;;;;;;10.80;9.80;;;;;;;29.27;55.50;100017.98;1696066;83;21497;-74
2021/07/20 08:43:45;;;;;;;11.68;9.58;;;;;;;29.37;53.70;100008.14;1715695;81;21127;-79
2021/07/20 08:46:54;;;;;;;12.15;9.70;;;;;;;29.51;53.91;100016.92;1728086;82;21077;-80
2021/07/20 08:50:00;;;;;;;11.95;9.93;;;;;;;29.64;53.65;100009.23;1710102;81;21066;-78
2021/07/20 08:52:46;;;;;;;11.25;9.55;;;;;;;29.72;52.94;100012.75;1716817;81;21058;-72
2021/07/20 08:55:22;;;;;;;10.75;9.23;;;;;;;29.80;52.35;100016.25;1721035;81;21543;-75
2021/07/20 08:57:55;;;;;;;9.58;8.45;;;;;;;29.88;51.36;100013.66;1727549;83;21584;-73
2021/07/20 09:00:26;;;;;;;10.18;8.80;;;;;;;30.07;51.98;100010.37;1727967;81;21583;-72
2021/07/20 09:03:18;;;;;;;11.97;8.95;;;;;;;30.24;50.71;100011.50;1718214;81;21073;-73
2021/07/20 09:05:52;;;;;;;10.28;8.48;;;;;;;30.34;50.12;100002.97;1723668;81;21088;-73
2021/07/20 09:08:49;;;;;;;9.25;8.00;;;;;;;30.37;49.20;99995.25;1719666;81;21169;-73
2021/07/20 09:11:38;;;;;;;10.05;8.78;;;;;;;30.31;48.02;99992.77;1706782;81;21093;-73
2021/07/20 09:14:39;;;;;;;14.00;8.68;;;;;;;29.98;48.46;99996.30;1714439;81;21066;-72
2021/07/20 09:17:31;;;;;;;9.73;8.55;;;;;;;29.71;49.10;99997.41;1714099;81;21003;-72
2021/07/20 09:20:12;;;;;;;9.28;8.18;;;;;;;29.45;48.23;99999.47;1718274;82;21120;-72
2021/07/20 09:23:08;;;;;;;9.13;7.58;;;;;;;29.26;48.92;99996.39;1723171;82;21586;-73
2021/07/20 09:26:03;;;;;;;10.45;7.90;;;;;;;29.18;49.56;99993.64;1718178;82;21060;-73
2021/07/20 09:28:48;;;;;;;9.45;7.67;;;;;;;29.16;48.87;99983.65;1718757;83;21099;-73
2021/07/20 09:31:54;;;;;;;8.53;7.00;;;;;;;29.17;49.27;99978.33;1711180;81;21107;-74
2021/07/20 09:34:28;;;;;;;9.10;7.20;;;;;;;29.21;47.80;99975.56;1705508;81;21042;-73
2021/07/20 09:37:10;;;;;;;8.70;6.72;;;;;;;29.20;46.11;99974.79;1703998;83;22141;-73
2021/07/20 09:40:00;;;;;;;8.43;6.65;;;;;;;29.21;47.14;99973.59;1722078;81;21093;-74
2021/07/20 09:42:44;;;;;;;7.90;7.10;;;;;;;29.32;47.75;99969.45;1720567;81;21014;-73
2021/07/20 09:45:19;;;;;;;8.50;6.50;;;;;;;29.47;47.35;99970.17;1717278;81;21148;-74
2021/07/20 09:48:23;;;;;;;9.30;7.08;;;;;;;29.52;45.95;99969.77;1691732;83;21049;-73
2021/07/20 09:51:10;;;;;;;8.83;6.55;;;;;;;29.62;45.61;99966.20;1720489;83;21524;-73
2021/07/20 09:54:21;;;;;;;9.00;6.87;;;;;;;29.77;45.42;99966.12;1718161;81;21090;-73
2021/07/20 09:57:00;;;;;;;8.85;6.90;;;;;;;29.85;45.18;99962.16;1722521;82;33405;-75
2021/07/20 09:59:55;;;;;;;7.55;6.42;;;;;;;29.74;44.58;99957.29;1717003;81;21085;-73
2021/07/20 10:02:48;;;;;;;8.25;6.62;;;;;;;29.58;44.99;99950.85;1717113;81;21042;-73
2021/07/20 10:05:29;;;;;;;8.30;6.97;;;;;;;29.60;45.90;99958.94;1721436;81;21111;-74
2021/07/20 10:08:03;;;;;;;9.33;7.10;;;;;;;29.61;45.69;99956.95;1723026;81;21471;-74
2021/07/20 10:10:39;;;;;;;8.10;6.80;;;;;;;29.56;46.35;99951.27;1704864;81;21077;-74
2021/07/20 10:13:12;;;;;;;12.73;6.83;;;;;;;29.55;46.98;99953.83;1709393;81;21011;-74
2021/07/20 10:15:57;;;;;;;7.92;6.65;;;;;;;29.61;45.86;99943.98;1719387;82;21007;-74
2021/07/20 10:18:46;;;;;;;8.05;6.00;;;;;;;29.68;47.13;99949.47;1717749;82;21122;-72
2021/07/20 10:21:16;;;;;;;8.85;6.15;;;;;;;29.64;46.02;99939.05;1714039;82;21575;-74
2021/07/20 10:23:53;;;;;;;7.55;6.42;;;;;;;29.66;47.26;99944.95;1716013;81;21078;-73
2021/07/20 10:26:34;;;;;;;8.60;5.70;;;;;;;29.72;47.93;99939.03;1728172;81;21009;-72
2021/07/20 10:29:14;;;;;;;6.92;5.37;;;;;;;29.69;43.78;99930.98;1733393;82;21057;-73
2021/07/20 10:32:10;;;;;;;7.37;5.55;;;;;;;29.61;44.71;99928.84;1723589;82;21858;-73
2021/07/20 10:34:41;;;;;;;7.22;5.70;;;;;;;29.59;44.33;99932.58;1721056;81;21058;-73
2021/07/20 10:37:20;;;;;;;;;;;;;;;29.58;44.84;99935.15;1721202;82;21043;-73
2021/07/20 10:39:59;;;;;;;8.88;6.53;;;;;;;29.55;46.50;99928.26;1716100;82;20197;-74
2021/07/20 10:42:47;;;;;;;8.40;6.22;;;;;;;29.47;46.31;99931.65;1710266;82;21105;-73
2021/07/20 10:45:16;;;;;;;7.97;6.10;;;;;;;29.50;47.19;99928.10;1721308;82;21080;-74
2021/07/20 10:48:03;;;;;;;7.90;6.20;;;;;;;29.53;47.24;99934.17;1713482;81;21576;-74
2021/07/20 10:50:56;;;;;;;8.18;6.17;;;;;;;29.49;47.00;99932.05;1714189;83;21037;-74
2021/07/20 10:54:06;;;;;;;11.68;6.28;;;;;;;29.41;47.25;99923.62;1712462;81;21097;-74
2021/07/20 10:56:58;;;;;;;8.13;6.35;;;;;;;29.43;47.90;99921.27;1719970;82;21604;-74
2021/07/20 11:00:07;;;;;;;9.65;6.87;;;;;;;29.41;46.91;99920.27;1716638;82;21635;-73
2021/07/20 11:03:02;;;;;;;8.90;6.30;;;;;;;29.33;48.08;99920.72;1716756;81;21045;-74
2021/07/20 11:05:30;;;;;;;7.42;6.17;;;;;;;29.26;50.10;99929.02;1723839;82;20996;-75
2021/07/20 11:08:01;;;;;;;7.78;6.22;;;;;;;29.24;49.00;99928.02;1718343;82;21007;-73
2021/07/20 11:10:33;;;;;;;8.45;6.30;;;;;;;29.33;50.22;99933.88;1723209;82;21079;-73
2021/07/20 11:13:05;;;;;;;8.05;6.25;;;;;;;29.48;48.84;99929.08;1717402;81;21142;-75
2021/07/20 11:15:33;;;;;;;8.23;5.50;;;;;;;29.69;48.10;99928.23;1725591;82;21073;-76
2021/07/20 11:18:10;;;;;;;9.63;6.90;;;;;;;29.95;47.65;99929.64;1701528;82;20949;-74
2021/07/20 11:20:37;;;;;;;11.88;6.67;;;;;;;30.25;46.35;99929.05;1719509;82;21077;-74
2021/07/20 11:23:05;;;;;;;7.87;6.33;;;;;;;30.54;44.67;99915.80;1724585;81;21085;-73
2021/07/20 11:25:33;;;;;;;9.25;5.78;;;;;;;30.81;44.51;99914.56;1723416;81;21238;-74
2021/07/20 11:28:00;;;;;;;7.75;6.08;;;;;;;31.11;45.46;99919.94;1717799;81;21098;-74
2021/07/20 11:30:31;;;;;;;6.65;5.60;;;;;;;31.38;44.57;99915.88;1719203;81;21059;-74
2021/07/20 11:33:08;;;;;;;6.53;5.87;;;;;;;31.66;43.33;99909.20;1718422;83;21525;-74
2021/07/20 11:35:38;;;;;;;7.75;6.35;;;;;;;31.83;42.17;99906.59;1721262;82;21560;-74
2021/07/20 11:38:13;;;;;;;8.93;6.25;;;;;;;31.93;41.98;99900.92;1719183;81;21111;-74
2021/07/20 11:41:00;;;;;;;8.08;5.78;;;;;;;32.02;40.84;99908.69;1710144;82;21057;-75
2021/07/20 11:44:10;;;;;;;8.68;5.90;;;;;;;31.95;41.35;99901.30;1720136;81;21602;-75
2021/07/20 11:46:59;;;;;;;;;;;;;;;31.86;41.20;99890.56;1724225;82;21064;-76